createdAt,value
2022-12-14T00:01:33.295Z,4.15
2022-12-14T00:04:00.077Z,4.16
2022-12-14T00:06:29.284Z,4.13
2022-12-14T00:08:57.903Z,4.09
2022-12-14T00:11:25.028Z,4.14
2022-12-14T00:13:53.715Z,4.10
2022-12-14T00:16:21.238Z,4.08
2022-12-14T00:18:52.554Z,4.07
2022-12-14T00:21:19.702Z,4.07
2022-12-14T00:23:46.907Z,4.02
2022-12-14T00:26:14.881Z,4.05
2022-12-14T00:28:42.378Z,4.05
2022-12-14T00:31:09.639Z,3.94
2022-12-14T00:33:36.607Z,4.02
2022-12-14T00:36:04.174Z,4.00
2022-12-14T00:38:30.961Z,3.99
2022-12-14T00:40:58.102Z,4.01
2022-12-14T00:43:24.865Z,3.99
2022-12-14T00:45:51.889Z,3.96
2022-12-14T00:48:19.597Z,3.98
2022-12-14T00:50:48.799Z,3.92
2022-12-14T00:53:16.189Z,3.92
2022-12-14T00:55:44.554Z,3.88
2022-12-14T00:58:19.228Z,3.91
2022-12-14T01:00:47.325Z,3.92
2022-12-14T01:03:14.161Z,3.92
2022-12-14T01:05:41.420Z,3.92
2022-12-14T01:08:08.190Z,3.92
2022-12-14T01:10:38.707Z,3.90
2022-12-14T01:13:05.420Z,3.88
2022-12-14T01:15:34.985Z,3.85
2022-12-14T01:18:01.715Z,3.87
2022-12-14T01:20:28.751Z,3.82
2022-12-14T01:22:56.253Z,3.86
2022-12-14T01:25:23.344Z,3.87
2022-12-14T01:27:50.170Z,3.82
2022-12-14T01:30:19.307Z,3.84
2022-12-14T01:32:46.771Z,3.85
2022-12-14T01:35:13.891Z,3.83
2022-12-14T01:37:40.667Z,3.83
2022-12-14T01:40:08.485Z,3.79
2022-12-14T01:42:37.798Z,3.84
2022-12-14T01:45:05.736Z,3.78
2022-12-14T01:47:41.758Z,3.78
2022-12-14T01:50:40.075Z,3.79
2022-12-14T01:53:08.804Z,3.82
2022-12-14T01:55:48.734Z,3.77
2022-12-14T01:58:19.074Z,3.82
2022-12-14T02:00:46.054Z,3.78
2022-12-14T02:03:21.756Z,3.74
2022-12-14T02:05:55.754Z,3.74
2022-12-14T02:08:22.848Z,3.70
2022-12-14T02:10:50.162Z,3.72
2022-12-14T02:13:25.989Z,3.72
2022-12-14T02:15:53.413Z,3.71
2022-12-14T02:18:25.643Z,3.72
2022-12-14T02:20:55.567Z,3.69
2022-12-14T02:23:53.140Z,3.68
2022-12-14T02:26:43.482Z,3.70
2022-12-14T02:29:19.438Z,3.66
2022-12-14T02:32:31.306Z,3.66
2022-12-14T02:35:09.967Z,3.66
2022-12-14T02:37:45.857Z,3.60
2022-12-14T02:40:34.846Z,3.67
2022-12-14T02:43:06.295Z,3.63
2022-12-14T02:45:47.627Z,3.64
2022-12-14T02:48:22.742Z,3.64
2022-12-14T02:51:19.943Z,3.64
2022-12-14T02:54:38.798Z,3.64
2022-12-14T02:57:13.895Z,3.61
2022-12-14T02:59:40.822Z,3.57
2022-12-14T03:02:07.658Z,3.60
2022-12-14T03:04:45.749Z,3.59
2022-12-14T03:07:36.845Z,3.59
2022-12-14T03:10:09.472Z,3.57
2022-12-14T03:12:37.829Z,3.58
2022-12-14T03:15:05.438Z,3.56
2022-12-14T03:17:32.157Z,3.55
2022-12-14T03:20:12.992Z,3.56
2022-12-14T03:22:42.957Z,3.53
2022-12-14T03:25:14.442Z,3.57
2022-12-14T03:27:44.698Z,3.54
2022-12-14T03:30:13.791Z,3.55
2022-12-14T03:32:59.827Z,3.48
2022-12-14T03:35:32.766Z,3.48
2022-12-14T03:38:03.845Z,3.50
2022-12-14T03:40:33.873Z,3.47
2022-12-14T03:43:26.168Z,3.50
2022-12-14T03:46:02.099Z,3.51
2022-12-14T03:48:41.662Z,3.51
2022-12-14T03:51:36.730Z,3.50
2022-12-14T03:54:33.040Z,3.48
2022-12-14T03:57:07.068Z,3.47
2022-12-14T04:00:06.386Z,3.44
2022-12-14T04:02:40.841Z,3.45
2022-12-14T04:05:10.398Z,3.44
2022-12-14T04:07:44.077Z,3.46
2022-12-14T04:10:35.252Z,3.45
2022-12-14T04:13:27.319Z,3.43
2022-12-14T04:16:13.070Z,3.41
2022-12-14T04:19:01.444Z,3.40
2022-12-14T04:21:32.566Z,3.42
2022-12-14T04:24:20.995Z,3.40
2022-12-14T04:26:56.925Z,3.41
2022-12-14T04:29:47.307Z,3.33
2022-12-14T04:32:35.982Z,3.36
2022-12-14T04:35:24.494Z,3.38
2022-12-14T04:37:56.195Z,3.34
2022-12-14T04:40:34.664Z,3.32
2022-12-14T04:43:10.439Z,3.27
2022-12-14T04:45:46.921Z,3.20
2022-12-14T04:48:27.603Z,3.23
2022-12-14T04:51:06.368Z,3.17
2022-12-14T04:53:33.088Z,3.20
2022-12-14T04:56:09.428Z,3.26
2022-12-14T04:58:36.244Z,3.26
2022-12-14T05:01:12.669Z,3.10
2022-12-14T05:04:12.475Z,3.16
2022-12-14T05:07:02.980Z,3.17
2022-12-14T05:09:32.176Z,3.13
2022-12-14T05:12:07.647Z,3.07
2022-12-14T05:15:05.683Z,3.07
2022-12-14T05:17:36.370Z,3.07
2022-12-14T05:20:03.429Z,3.09
2022-12-14T05:22:30.452Z,3.08
2022-12-14T05:24:57.388Z,3.08
2022-12-14T05:27:24.430Z,3.08
2022-12-14T05:29:51.128Z,3.11
2022-12-14T05:32:18.223Z,3.06
2022-12-14T05:34:44.931Z,3.00
2022-12-14T05:37:18.002Z,3.16
2022-12-14T05:39:45.258Z,3.17
2022-12-14T05:42:12.303Z,3.16
2022-12-14T05:44:39.114Z,3.14
2022-12-14T05:47:06.152Z,3.19
2022-12-14T05:49:32.890Z,3.05
2022-12-14T05:51:59.998Z,3.07
2022-12-14T05:54:26.761Z,3.00
2022-12-14T05:56:53.794Z,3.05
2022-12-14T05:59:20.550Z,3.08
2022-12-14T06:01:49.767Z,3.03
2022-12-14T06:04:17.915Z,3.07
2022-12-14T06:06:44.991Z,3.05
2022-12-14T06:09:13.267Z,3.02
2022-12-14T06:11:41.092Z,3.03
2022-12-14T06:14:08.174Z,3.05
2022-12-14T06:16:35.460Z,3.11
2022-12-14T06:19:03.527Z,3.10
2022-12-14T06:21:32.795Z,3.07
2022-12-14T06:23:59.606Z,3.10
2022-12-14T06:26:27.203Z,3.02
2022-12-14T06:28:53.954Z,2.95
2022-12-14T06:31:22.679Z,2.96
2022-12-14T06:33:49.799Z,2.99
2022-12-14T06:36:33.838Z,3.00
2022-12-14T06:39:02.913Z,2.98
2022-12-14T06:41:29.961Z,3.03
2022-12-14T06:43:57.234Z,3.01
2022-12-14T06:46:24.521Z,3.03
2022-12-14T06:48:52.293Z,2.98
2022-12-14T06:51:19.994Z,3.05
2022-12-14T06:53:46.921Z,3.04
2022-12-14T06:56:17.607Z,3.02
2022-12-14T06:58:44.569Z,3.06
2022-12-14T07:01:13.431Z,3.04
2022-12-14T07:03:40.479Z,2.99
2022-12-14T07:06:08.294Z,2.93
2022-12-14T07:08:36.762Z,2.89
2022-12-14T07:11:05.421Z,2.92
2022-12-14T07:13:32.181Z,2.90
2022-12-14T07:15:59.687Z,2.80
2022-12-14T07:18:26.639Z,2.86
2022-12-14T07:20:57.343Z,2.77
2022-12-14T07:23:27.876Z,2.74
2022-12-14T07:26:04.694Z,2.80
2022-12-14T07:28:31.787Z,2.86
2022-12-14T07:30:59.378Z,2.84
2022-12-14T07:33:26.593Z,2.88
2022-12-14T07:36:11.175Z,2.91
2022-12-14T07:38:38.795Z,2.91
2022-12-14T07:41:15.523Z,2.95
2022-12-14T07:43:46.304Z,2.97
2022-12-14T07:46:18.973Z,2.93
2022-12-14T07:48:46.994Z,2.95
2022-12-14T07:51:15.545Z,2.92
2022-12-14T07:53:42.432Z,3.04
2022-12-14T07:56:19.969Z,3.01
2022-12-14T07:58:46.805Z,3.05
2022-12-14T08:01:21.310Z,3.03
2022-12-14T08:03:55.917Z,3.01
2022-12-14T08:06:23.969Z,2.95
2022-12-14T08:08:51.521Z,2.99
2022-12-14T08:11:18.788Z,2.98
2022-12-14T08:13:46.918Z,2.99
2022-12-14T08:16:15.440Z,3.00
2022-12-14T08:18:42.752Z,2.95
2022-12-14T08:21:10.780Z,3.01
2022-12-14T08:23:37.689Z,3.01
2022-12-14T08:26:06.098Z,2.96
2022-12-14T08:28:34.927Z,2.97
2022-12-14T08:31:06.446Z,2.96
2022-12-14T08:33:34.488Z,2.94
2022-12-14T08:36:06.125Z,3.03
2022-12-14T08:38:32.850Z,3.05
2022-12-14T08:41:04.330Z,3.04
2022-12-14T08:43:31.501Z,2.99
2022-12-14T08:45:59.016Z,3.00
2022-12-14T08:48:25.851Z,3.05
2022-12-14T08:50:53.047Z,2.96
2022-12-14T08:53:20.093Z,2.97
2022-12-14T08:55:47.100Z,2.99
2022-12-14T08:58:14.054Z,2.95
2022-12-14T09:00:41.150Z,2.92
2022-12-14T09:03:08.058Z,2.98
2022-12-14T09:05:35.499Z,2.92
2022-12-14T09:08:02.282Z,2.96
2022-12-14T09:10:29.352Z,2.95
2022-12-14T09:12:56.284Z,2.94
2022-12-14T09:15:23.342Z,2.86
2022-12-14T09:17:51.044Z,2.93
2022-12-14T09:20:19.036Z,2.93
2022-12-14T09:22:46.208Z,2.93
2022-12-14T09:25:13.802Z,2.97
2022-12-14T09:27:40.542Z,2.89
2022-12-14T09:30:08.046Z,2.95
2022-12-14T09:32:34.794Z,2.79
2022-12-14T09:35:01.826Z,2.77
2022-12-14T09:37:28.655Z,2.86
2022-12-14T09:39:55.748Z,2.80
2022-12-14T09:42:53.327Z,2.73
2022-12-14T09:45:32.571Z,2.67
2022-12-14T09:48:15.359Z,2.68
2022-12-14T09:50:42.355Z,2.70
2022-12-14T09:53:11.998Z,2.73
2022-12-14T09:55:59.633Z,2.74
2022-12-14T09:58:28.547Z,2.82
2022-12-14T10:01:22.325Z,2.88
2022-12-14T10:03:49.924Z,2.91
2022-12-14T10:06:44.956Z,2.93
2022-12-14T10:09:27.603Z,2.89
2022-12-14T10:12:21.007Z,2.93
2022-12-14T10:15:05.680Z,2.79
2022-12-14T10:17:40.191Z,2.57
2022-12-14T10:20:19.046Z,2.45
2022-12-14T10:22:47.087Z,2.49
2022-12-14T10:25:24.936Z,2.43
2022-12-14T10:28:12.938Z,2.50
2022-12-14T10:30:43.065Z,2.53
2022-12-14T10:33:23.325Z,2.47
2022-12-14T10:35:51.396Z,2.64
2022-12-14T10:38:26.417Z,2.77
2022-12-14T10:41:12.245Z,2.66
2022-12-14T10:43:58.149Z,2.79
2022-12-14T10:46:56.039Z,2.85
2022-12-14T10:49:40.332Z,2.84
2022-12-14T10:52:14.905Z,2.88
2022-12-14T10:54:48.158Z,2.90
2022-12-14T10:57:22.511Z,2.95
2022-12-14T11:00:07.354Z,2.95
2022-12-14T11:02:38.975Z,2.94
2022-12-14T11:05:57.612Z,2.94
2022-12-14T11:08:39.447Z,2.70
2022-12-14T11:11:21.013Z,2.61
2022-12-14T11:14:08.007Z,2.53
2022-12-14T11:16:37.589Z,2.62
2022-12-14T11:19:06.467Z,2.50
2022-12-14T11:21:37.652Z,2.63
2022-12-14T11:24:04.936Z,2.64
2022-12-14T11:26:39.734Z,2.73
2022-12-14T11:29:07.510Z,2.54
2022-12-14T11:31:39.418Z,2.64
2022-12-14T11:34:07.383Z,2.59
2022-12-14T11:36:38.226Z,2.56
2022-12-14T11:39:14.591Z,2.55
2022-12-14T11:42:00.883Z,2.62
2022-12-14T11:44:33.242Z,2.53
2022-12-14T11:47:00.445Z,2.41
2022-12-14T11:49:40.190Z,2.39
2022-12-14T11:52:11.139Z,2.36
2022-12-14T11:54:42.354Z,2.36
2022-12-14T11:57:37.079Z,2.54
2022-12-14T12:00:23.840Z,2.45
2022-12-14T12:03:02.178Z,2.53
2022-12-14T12:05:31.466Z,2.55
2022-12-14T12:07:58.954Z,2.43
2022-12-14T12:10:37.558Z,2.42
2022-12-14T12:13:05.719Z,2.42
2022-12-14T12:15:40.828Z,2.34
2022-12-14T12:18:13.647Z,2.38
2022-12-14T12:20:44.502Z,2.32
2022-12-14T12:23:17.767Z,2.42
2022-12-14T12:25:45.043Z,2.49
2022-12-14T12:28:15.391Z,2.60
2022-12-14T12:30:43.729Z,2.46
2022-12-14T12:33:31.715Z,2.51
2022-12-14T12:36:02.081Z,2.35
2022-12-14T12:38:49.961Z,2.35
2022-12-14T12:41:45.761Z,2.29
2022-12-14T12:44:35.026Z,2.24
2022-12-14T12:47:32.176Z,2.43
2022-12-14T12:50:10.637Z,2.50
2022-12-14T12:53:03.963Z,2.52
2022-12-14T12:55:51.930Z,2.40
2022-12-14T12:58:38.017Z,2.48
2022-12-14T13:01:17.886Z,2.55
2022-12-14T13:03:46.051Z,2.51
2022-12-14T13:06:53.798Z,2.44
2022-12-14T13:09:31.803Z,2.59
2022-12-14T13:11:58.830Z,2.47
2022-12-14T13:14:38.663Z,2.61
2022-12-14T13:17:06.659Z,2.65
2022-12-14T13:19:51.620Z,2.55
2022-12-14T13:22:29.081Z,2.51
2022-12-14T13:24:59.741Z,2.47
2022-12-14T13:27:40.758Z,2.52
2022-12-14T13:30:16.567Z,2.46
2022-12-14T13:33:23.207Z,2.47
2022-12-14T13:36:14.592Z,2.53
2022-12-14T13:38:53.699Z,2.70
2022-12-14T13:41:41.756Z,2.61
2022-12-14T13:44:31.075Z,2.67
2022-12-14T13:47:05.827Z,2.65
2022-12-14T13:49:33.041Z,2.67
2022-12-14T13:51:59.834Z,2.74
2022-12-14T13:54:29.668Z,2.64
2022-12-14T13:57:11.491Z,2.66
2022-12-14T13:59:42.376Z,2.56
2022-12-14T14:02:27.905Z,2.51
2022-12-14T14:05:20.220Z,2.51
2022-12-14T14:07:57.031Z,2.49
2022-12-14T14:10:42.311Z,2.46
2022-12-14T14:13:27.567Z,2.54
2022-12-14T14:16:27.351Z,2.40
2022-12-14T14:19:11.386Z,2.38
2022-12-14T14:22:14.040Z,2.41
2022-12-14T14:25:00.697Z,2.63
2022-12-14T14:28:03.496Z,2.65
2022-12-14T14:30:45.928Z,2.49
2022-12-14T14:33:46.818Z,2.41
2022-12-14T14:36:25.394Z,2.48
2022-12-14T14:38:54.308Z,2.56
2022-12-14T14:41:23.336Z,2.54
2022-12-14T14:44:01.405Z,2.59
2022-12-14T14:46:38.336Z,2.62
2022-12-14T14:49:05.709Z,2.45
2022-12-14T14:51:36.197Z,2.47
2022-12-14T14:55:03.554Z,2.49
2022-12-14T14:57:27.186Z,2.40
2022-12-14T14:59:54.718Z,2.50
2022-12-14T15:02:30.826Z,2.39
2022-12-14T15:05:17.422Z,2.45
2022-12-14T15:07:44.976Z,2.43
2022-12-14T15:10:37.775Z,2.57
2022-12-14T15:13:14.829Z,2.46
2022-12-14T15:15:46.150Z,2.53
2022-12-14T15:18:25.153Z,2.65
2022-12-14T15:20:59.503Z,2.69
2022-12-14T15:23:30.288Z,2.70
2022-12-14T15:25:59.289Z,2.84
2022-12-14T15:28:26.381Z,2.88
2022-12-14T15:30:55.129Z,2.86
2022-12-14T15:33:40.022Z,2.73
2022-12-14T15:36:10.869Z,2.78
2022-12-14T15:38:38.000Z,2.80
2022-12-14T15:41:15.904Z,2.93
2022-12-14T15:43:44.788Z,2.99
2022-12-14T15:46:19.544Z,3.04
2022-12-14T15:48:46.556Z,3.07
2022-12-14T15:51:16.764Z,3.08
2022-12-14T15:53:50.301Z,3.12
2022-12-14T15:56:37.954Z,3.15
2022-12-14T15:59:17.885Z,3.15
2022-12-14T16:01:54.777Z,3.16
2022-12-14T16:04:23.090Z,3.19
2022-12-14T16:07:15.030Z,3.20
2022-12-14T16:09:44.258Z,3.19
2022-12-14T16:12:21.672Z,3.19
2022-12-14T16:14:54.345Z,3.21
2022-12-14T16:17:33.078Z,3.24
2022-12-14T16:20:01.915Z,3.27
2022-12-14T16:22:30.093Z,3.43
2022-12-14T16:25:16.914Z,3.53
2022-12-14T16:27:50.018Z,3.40
2022-12-14T16:30:31.251Z,3.30
2022-12-14T16:33:14.627Z,3.34
2022-12-14T16:35:41.451Z,3.30
2022-12-14T16:38:12.254Z,3.27
2022-12-14T16:40:52.847Z,3.34
2022-12-14T16:43:39.990Z,3.32
2022-12-14T16:46:09.713Z,3.40
2022-12-14T16:48:41.644Z,3.32
2022-12-14T16:51:32.995Z,3.31
2022-12-14T16:54:06.175Z,3.30
2022-12-14T16:56:33.482Z,3.34
2022-12-14T16:59:06.090Z,3.33
2022-12-14T17:01:45.985Z,3.36
2022-12-14T17:04:13.727Z,3.37
2022-12-14T17:06:56.738Z,3.29
2022-12-14T17:09:25.261Z,3.32
2022-12-14T17:11:53.211Z,3.30
2022-12-14T17:14:20.310Z,3.34
2022-12-14T17:16:48.046Z,3.31
2022-12-14T17:19:23.352Z,3.34
2022-12-14T17:21:50.376Z,3.36
2022-12-14T17:24:18.770Z,3.31
2022-12-14T17:26:45.866Z,3.31
2022-12-14T17:29:24.532Z,3.36
2022-12-14T17:31:54.611Z,3.28
2022-12-14T17:34:23.129Z,3.31
2022-12-14T17:36:50.171Z,3.35
2022-12-14T17:39:17.243Z,3.38
2022-12-14T17:41:45.019Z,3.37
2022-12-14T17:44:16.558Z,3.34
2022-12-14T17:46:43.704Z,3.48
2022-12-14T17:49:14.608Z,3.43
2022-12-14T17:51:42.533Z,3.51
2022-12-14T17:54:17.669Z,3.42
2022-12-14T17:56:44.789Z,3.32
2022-12-14T17:59:12.349Z,3.37
2022-12-14T18:01:40.102Z,3.32
2022-12-14T18:04:08.193Z,3.24
2022-12-14T18:06:35.388Z,3.17
2022-12-14T18:09:05.152Z,3.23
2022-12-14T18:11:32.141Z,3.27
2022-12-14T18:13:59.436Z,3.31
2022-12-14T18:16:28.808Z,3.24
2022-12-14T18:18:56.380Z,3.35
2022-12-14T18:21:25.169Z,3.34
2022-12-14T18:23:52.491Z,3.36
2022-12-14T18:26:22.496Z,3.41
2022-12-14T18:28:53.767Z,3.39
2022-12-14T18:31:23.728Z,3.40
2022-12-14T18:33:50.758Z,3.43
2022-12-14T18:36:19.910Z,3.50
2022-12-14T18:38:49.511Z,3.51
2022-12-14T18:41:17.923Z,3.55
2022-12-14T18:43:45.223Z,3.58
2022-12-14T18:46:12.351Z,3.61
2022-12-14T18:48:40.594Z,3.64
2022-12-14T18:51:07.524Z,3.64
2022-12-14T18:53:34.901Z,3.61
2022-12-14T18:56:02.185Z,3.59
2022-12-14T18:58:29.335Z,3.55
2022-12-14T19:00:57.753Z,3.58
2022-12-14T19:03:25.165Z,3.62
2022-12-14T19:05:52.263Z,3.65
2022-12-14T19:08:19.343Z,3.69
2022-12-14T19:10:47.953Z,3.66
2022-12-14T19:13:23.262Z,3.72
2022-12-14T19:15:52.088Z,3.70
2022-12-14T19:18:19.214Z,3.74
2022-12-14T19:20:45.960Z,3.76
2022-12-14T19:23:17.423Z,3.76
2022-12-14T19:25:47.080Z,3.77
2022-12-14T19:31:01.657Z,3.76
2022-12-14T19:33:29.400Z,3.78
2022-12-14T19:35:56.425Z,3.77
2022-12-14T19:38:23.494Z,3.75
2022-12-14T19:41:01.026Z,3.72
2022-12-14T19:43:29.655Z,3.78
2022-12-14T19:45:56.914Z,3.80
2022-12-14T19:48:24.145Z,3.72
2022-12-14T19:50:50.916Z,3.75
2022-12-14T19:53:23.224Z,3.74
2022-12-14T19:55:52.394Z,3.72
2022-12-14T19:58:22.188Z,3.77
2022-12-14T20:00:49.960Z,3.81
2022-12-14T20:03:17.561Z,3.82
2022-12-14T20:05:54.950Z,3.86
2022-12-14T20:08:22.741Z,3.89
2022-12-14T20:10:49.639Z,3.89
2022-12-14T20:13:16.645Z,3.86
2022-12-14T20:15:53.966Z,3.90
2022-12-14T20:18:21.765Z,3.92
2022-12-14T20:20:49.626Z,3.92
2022-12-14T20:23:18.292Z,3.97
2022-12-14T20:25:45.073Z,3.93
2022-12-14T20:28:12.170Z,3.93
2022-12-14T20:30:45.931Z,3.94
2022-12-14T20:33:13.314Z,3.96
2022-12-14T20:35:40.198Z,3.98
2022-12-14T20:38:07.243Z,3.99
2022-12-14T20:40:38.468Z,3.97
2022-12-14T20:43:05.991Z,4.01
2022-12-14T20:45:37.653Z,4.01
2022-12-14T20:48:05.249Z,4.04
2022-12-14T20:50:31.973Z,4.05
2022-12-14T20:52:59.050Z,4.02
2022-12-14T20:55:25.770Z,3.99
2022-12-14T20:57:52.826Z,4.04
2022-12-14T21:00:19.550Z,4.02
2022-12-14T21:02:46.787Z,4.04
2022-12-14T21:05:13.623Z,4.18
2022-12-14T21:07:40.903Z,4.36
2022-12-14T21:10:08.142Z,4.36
2022-12-14T21:12:35.323Z,4.29
2022-12-14T21:15:02.225Z,4.25
2022-12-14T21:17:29.933Z,4.22
2022-12-14T21:19:57.349Z,4.18
2022-12-14T21:22:26.138Z,4.15
2022-12-14T21:25:03.597Z,4.21
2022-12-14T21:27:32.393Z,4.23
2022-12-14T21:30:00.441Z,4.25
2022-12-14T21:32:27.926Z,4.25
2022-12-14T21:34:54.706Z,4.20
2022-12-14T21:37:22.093Z,4.23
2022-12-14T21:39:54.281Z,4.22
2022-12-14T21:42:25.701Z,4.21
2022-12-14T21:44:52.955Z,4.24
2022-12-14T21:47:21.918Z,4.23
2022-12-14T21:49:49.108Z,4.26
2022-12-14T21:52:18.298Z,4.27
2022-12-14T21:54:45.099Z,4.28
2022-12-14T21:57:34.507Z,4.23
2022-12-14T22:00:01.695Z,4.27
2022-12-14T22:02:29.159Z,4.25
2022-12-14T22:04:56.378Z,4.26
2022-12-14T22:07:25.590Z,4.23
2022-12-14T22:09:52.350Z,4.25
2022-12-14T22:12:19.459Z,4.24
2022-12-14T22:14:46.211Z,4.26
2022-12-14T22:17:13.696Z,4.33
2022-12-14T22:19:40.491Z,4.30
2022-12-14T22:22:07.570Z,4.30
2022-12-14T22:24:34.311Z,4.31
2022-12-14T22:27:01.827Z,4.31
2022-12-14T22:29:28.844Z,4.34
2022-12-14T22:31:56.001Z,4.30
2022-12-14T22:34:23.200Z,4.32
2022-12-14T22:36:50.787Z,4.34
2022-12-14T22:39:17.798Z,4.33
2022-12-14T22:41:45.120Z,4.33
2022-12-14T22:44:12.805Z,4.35
2022-12-14T22:46:40.203Z,4.34
2022-12-14T22:49:06.965Z,4.38
2022-12-14T22:51:34.019Z,4.37
2022-12-14T22:54:00.853Z,4.38
2022-12-14T22:56:38.371Z,4.39
2022-12-14T22:59:07.836Z,4.36
2022-12-14T23:01:35.064Z,4.39
2022-12-14T23:04:01.968Z,4.37
2022-12-14T23:06:29.082Z,4.37
2022-12-14T23:09:14.475Z,4.40
2022-12-14T23:12:00.111Z,4.39
2022-12-14T23:14:45.582Z,4.38
2022-12-14T23:17:31.018Z,4.38
2022-12-14T23:20:16.465Z,4.42
2022-12-14T23:23:02.220Z,4.40
2022-12-14T23:25:47.256Z,4.41
2022-12-14T23:28:32.920Z,4.41
2022-12-14T23:31:18.324Z,4.41
2022-12-14T23:34:04.079Z,4.45
2022-12-14T23:36:49.468Z,4.42
2022-12-14T23:39:34.989Z,4.39
2022-12-14T23:42:20.463Z,4.44
2022-12-14T23:45:06.130Z,4.40
2022-12-14T23:47:51.396Z,4.46
2022-12-14T23:50:36.840Z,4.48
2022-12-14T23:53:25.655Z,4.46
2022-12-14T23:56:11.460Z,4.45
2022-12-14T23:58:56.831Z,4.46
